sensor_id;sensor_type;location;lat;lon;timestamp;pressure;altitude;pressure_sealevel;temperature;humidity
33155;BME280;19511;42.682;23.332;2023-05-19T00:01:48;95405.28;;;11.30;100.00
33155;BME280;19511;42.682;23.332;2023-05-19T00:04:15;95401.31;;;11.31;100.00
33155;BME280;19511;42.682;23.332;2023-05-19T00:06:41;95308.44;;;10.77;100.00
33155;BME280;19511;42.682;23.332;2023-05-19T00:09:08;95381.59;;;11.25;100.00
33155;BME280;19511;42.682;23.332;2023-05-19T00:11:35;95400.06;;;11.39;100.00
33155;BME280;19511;42.682;23.332;2023-05-19T00:14:03;95376.81;;;11.26;100.00
33155;BME280;19511;42.682;23.332;2023-05-19T00:16:29;95399.69;;;11.37;100.00
33155;BME280;19511;42.682;23.332;2023-05-19T00:18:59;95397.31;;;11.36;100.00
33155;BME280;19511;42.682;23.332;2023-05-19T00:21:26;95392.56;;;11.36;100.00
33155;BME280;19511;42.682;23.332;2023-05-19T00:23:51;95377.91;;;11.39;100.00
33155;BME280;19511;42.682;23.332;2023-05-19T00:26:17;95364.09;;;11.36;100.00
33155;BME280;19511;42.682;23.332;2023-05-19T00:28:43;95375.88;;;11.43;100.00
33155;BME280;19511;42.682;23.332;2023-05-19T00:31:08;95295.66;;;10.94;100.00
33155;BME280;19511;42.682;23.332;2023-05-19T00:33:34;95364.91;;;11.33;100.00
33155;BME280;19511;42.682;23.332;2023-05-19T00:36:02;95296.94;;;10.83;100.00
33155;BME280;19511;42.682;23.332;2023-05-19T00:38:35;95385.47;;;11.35;100.00
33155;BME280;19511;42.682;23.332;2023-05-19T00:41:02;95378.72;;;11.36;100.00
33155;BME280;19511;42.682;23.332;2023-05-19T00:43:28;95383.06;;;11.37;100.00
33155;BME280;19511;42.682;23.332;2023-05-19T00:45:55;95373.63;;;11.31;100.00
33155;BME280;19511;42.682;23.332;2023-05-19T00:48:20;95373.22;;;11.33;100.00
33155;BME280;19511;42.682;23.332;2023-05-19T00:50:48;95366.97;;;11.25;100.00
33155;BME280;19511;42.682;23.332;2023-05-19T00:53:13;95373.25;;;11.29;100.00
33155;BME280;19511;42.682;23.332;2023-05-19T00:55:41;95367.50;;;11.09;100.00
33155;BME280;19511;42.682;23.332;2023-05-19T00:58:08;95362.72;;;11.09;100.00
33155;BME280;19511;42.682;23.332;2023-05-19T01:00:38;95375.81;;;11.09;100.00
33155;BME280;19511;42.682;23.332;2023-05-19T01:03:04;95369.53;;;11.01;100.00
33155;BME280;19511;42.682;23.332;2023-05-19T01:05:37;95371.56;;;10.93;100.00
33155;BME280;19511;42.682;23.332;2023-05-19T01:08:04;95376.31;;;10.93;100.00
33155;BME280;19511;42.682;23.332;2023-05-19T01:10:30;95377.94;;;10.87;100.00
33155;BME280;19511;42.682;23.332;2023-05-19T01:12:55;95285.88;;;10.26;100.00
33155;BME280;19511;42.682;23.332;2023-05-19T01:15:26;95388.94;;;10.94;100.00
33155;BME280;19511;42.682;23.332;2023-05-19T01:18:10;95385.88;;;10.85;100.00
33155;BME280;19511;42.682;23.332;2023-05-19T01:20:41;95378.78;;;10.80;100.00
33155;BME280;19511;42.682;23.332;2023-05-19T01:26:39;95363.50;;;10.61;100.00
33155;BME280;19511;42.682;23.332;2023-05-19T01:31:44;95382.44;;;10.66;100.00
33155;BME280;19511;42.682;23.332;2023-05-19T01:34:12;95294.28;;;10.08;100.00
33155;BME280;19511;42.682;23.332;2023-05-19T01:36:40;95375.72;;;10.67;100.00
33155;BME280;19511;42.682;23.332;2023-05-19T01:39:09;95387.63;;;10.57;100.00
33155;BME280;19511;42.682;23.332;2023-05-19T01:41:37;95294.31;;;10.01;100.00
33155;BME280;19511;42.682;23.332;2023-05-19T01:44:08;95384.44;;;10.58;100.00
33155;BME280;19511;42.682;23.332;2023-05-19T01:46:35;95384.13;;;10.49;100.00
33155;BME280;19511;42.682;23.332;2023-05-19T01:49:00;95364.03;;;10.34;100.00
33155;BME280;19511;42.682;23.332;2023-05-19T01:51:26;95381.03;;;10.40;100.00
33155;BME280;19511;42.682;23.332;2023-05-19T01:53:51;95378.66;;;10.31;100.00
33155;BME280;19511;42.682;23.332;2023-05-19T01:56:36;95386.16;;;10.30;100.00
33155;BME280;19511;42.682;23.332;2023-05-19T01:59:13;95392.47;;;10.38;100.00
33155;BME280;19511;42.682;23.332;2023-05-19T02:01:51;95316.09;;;9.85;100.00
33155;BME280;19511;42.682;23.332;2023-05-19T02:07:32;95393.66;;;10.37;100.00
33155;BME280;19511;42.682;23.332;2023-05-19T02:10:10;95313.72;;;9.87;100.00
33155;BME280;19511;42.682;23.332;2023-05-19T02:12:39;95390.09;;;10.33;100.00
33155;BME280;19511;42.682;23.332;2023-05-19T02:15:16;95309.38;;;9.86;100.00
33155;BME280;19511;42.682;23.332;2023-05-19T02:17:46;95392.84;;;10.40;100.00
33155;BME280;19511;42.682;23.332;2023-05-19T02:20:15;95397.97;;;10.45;100.00
33155;BME280;19511;42.682;23.332;2023-05-19T02:22:40;95396.03;;;10.42;100.00
33155;BME280;19511;42.682;23.332;2023-05-19T02:25:07;95366.44;;;10.28;100.00
33155;BME280;19511;42.682;23.332;2023-05-19T02:27:36;95392.81;;;10.48;100.00
33155;BME280;19511;42.682;23.332;2023-05-19T02:30:03;95401.13;;;10.44;100.00
33155;BME280;19511;42.682;23.332;2023-05-19T02:32:32;95401.13;;;10.48;100.00
33155;BME280;19511;42.682;23.332;2023-05-19T02:35:02;95389.22;;;10.54;100.00
33155;BME280;19511;42.682;23.332;2023-05-19T02:37:28;95390.06;;;10.44;100.00
33155;BME280;19511;42.682;23.332;2023-05-19T02:39:54;95404.31;;;10.42;100.00
33155;BME280;19511;42.682;23.332;2023-05-19T02:42:19;95381.44;;;10.31;100.00
33155;BME280;19511;42.682;23.332;2023-05-19T02:44:49;95393.25;;;10.32;100.00
33155;BME280;19511;42.682;23.332;2023-05-19T02:47:15;95389.31;;;10.33;100.00
33155;BME280;19511;42.682;23.332;2023-05-19T02:49:41;95396.44;;;10.34;100.00
33155;BME280;19511;42.682;23.332;2023-05-19T02:52:11;95394.09;;;10.25;100.00
33155;BME280;19511;42.682;23.332;2023-05-19T02:54:36;95395.25;;;10.31;100.00
33155;BME280;19511;42.682;23.332;2023-05-19T02:57:02;95407.47;;;10.37;100.00
33155;BME280;19511;42.682;23.332;2023-05-19T02:59:27;95409.44;;;10.40;100.00
33155;BME280;19511;42.682;23.332;2023-05-19T03:01:55;95415.78;;;10.37;100.00
33155;BME280;19511;42.682;23.332;2023-05-19T03:04:22;95409.03;;;10.42;100.00
33155;BME280;19511;42.682;23.332;2023-05-19T03:06:47;95419.31;;;10.41;100.00
33155;BME280;19511;42.682;23.332;2023-05-19T03:09:13;95401.53;;;10.35;100.00
33155;BME280;19511;42.682;23.332;2023-05-19T03:11:39;95392.91;;;10.22;100.00
33155;BME280;19511;42.682;23.332;2023-05-19T03:14:04;95406.31;;;10.31;100.00
33155;BME280;19511;42.682;23.332;2023-05-19T03:16:30;95416.97;;;10.40;100.00
33155;BME280;19511;42.682;23.332;2023-05-19T03:18:55;95415.38;;;10.42;100.00
33155;BME280;19511;42.682;23.332;2023-05-19T03:21:21;95416.13;;;10.47;100.00
33155;BME280;19511;42.682;23.332;2023-05-19T03:23:46;95405.88;;;10.43;100.00
33155;BME280;19511;42.682;23.332;2023-05-19T03:26:15;95409.06;;;10.38;100.00
33155;BME280;19511;42.682;23.332;2023-05-19T03:28:41;95404.31;;;10.39;100.00
33155;BME280;19511;42.682;23.332;2023-05-19T03:31:06;95414.56;;;10.45;100.00
33155;BME280;19511;42.682;23.332;2023-05-19T03:33:32;95324.81;;;9.79;100.00
33155;BME280;19511;42.682;23.332;2023-05-19T03:35:57;95314.94;;;9.75;100.00
33155;BME280;19511;42.682;23.332;2023-05-19T03:38:23;95351.16;;;10.02;100.00
33155;BME280;19511;42.682;23.332;2023-05-19T03:40:49;95327.91;;;9.89;100.00
33155;BME280;19511;42.682;23.332;2023-05-19T03:43:14;95416.13;;;10.50;100.00
33155;BME280;19511;42.682;23.332;2023-05-19T03:45:40;95402.66;;;10.52;100.00
33155;BME280;19511;42.682;23.332;2023-05-19T03:48:10;95403.06;;;10.54;100.00
33155;BME280;19511;42.682;23.332;2023-05-19T03:50:36;95410.50;;;10.61;100.00
33155;BME280;19511;42.682;23.332;2023-05-19T03:53:05;95334.13;;;10.11;100.00
33155;BME280;19511;42.682;23.332;2023-05-19T03:55:32;95435.34;;;10.75;100.00
33155;BME280;19511;42.682;23.332;2023-05-19T03:58:03;95396.66;;;10.68;100.00
33155;BME280;19511;42.682;23.332;2023-05-19T04:00:28;95411.91;;;10.91;100.00
33155;BME280;19511;42.682;23.332;2023-05-19T04:02:54;95432.72;;;11.14;100.00
33155;BME280;19511;42.682;23.332;2023-05-19T04:05:20;95431.47;;;11.18;100.00
33155;BME280;19511;42.682;23.332;2023-05-19T04:07:46;95410.88;;;11.23;100.00
33155;BME280;19511;42.682;23.332;2023-05-19T04:10:14;95432.84;;;11.44;100.00
33155;BME280;19511;42.682;23.332;2023-05-19T04:12:40;95425.63;;;11.58;100.00
33155;BME280;19511;42.682;23.332;2023-05-19T04:15:11;95417.31;;;11.58;100.00
33155;BME280;19511;42.682;23.332;2023-05-19T04:17:37;95408.94;;;11.62;100.00
33155;BME280;19511;42.682;23.332;2023-05-19T04:20:05;95423.75;;;11.86;100.00
33155;BME280;19511;42.682;23.332;2023-05-19T04:22:31;95425.72;;;11.89;100.00
33155;BME280;19511;42.682;23.332;2023-05-19T04:24:56;95334.03;;;11.34;100.00
33155;BME280;19511;42.682;23.332;2023-05-19T04:27:28;95414.25;;;11.87;100.00
33155;BME280;19511;42.682;23.332;2023-05-19T04:29:56;95420.47;;;11.98;100.00
33155;BME280;19511;42.682;23.332;2023-05-19T04:32:22;95437.72;;;12.17;100.00
33155;BME280;19511;42.682;23.332;2023-05-19T04:34:47;95400.72;;;11.92;100.00
33155;BME280;19511;42.682;23.332;2023-05-19T04:37:13;95429.84;;;12.12;100.00
33155;BME280;19511;42.682;23.332;2023-05-19T04:39:41;95343.78;;;11.50;100.00
33155;BME280;19511;42.682;23.332;2023-05-19T04:42:10;95435.69;;;12.21;100.00
33155;BME280;19511;42.682;23.332;2023-05-19T04:44:36;95438.81;;;12.27;100.00
33155;BME280;19511;42.682;23.332;2023-05-19T04:47:07;95429.41;;;12.17;100.00
33155;BME280;19511;42.682;23.332;2023-05-19T04:49:34;95437.19;;;12.29;100.00
33155;BME280;19511;42.682;23.332;2023-05-19T04:52:08;95428.88;;;12.29;100.00
33155;BME280;19511;42.682;23.332;2023-05-19T04:54:37;95428.03;;;12.32;100.00
33155;BME280;19511;42.682;23.332;2023-05-19T04:57:03;95396.94;;;12.14;100.00
33155;BME280;19511;42.682;23.332;2023-05-19T04:59:29;95439.78;;;12.44;100.00
33155;BME280;19511;42.682;23.332;2023-05-19T05:01:55;95436.25;;;12.39;100.00
33155;BME280;19511;42.682;23.332;2023-05-19T05:04:22;95439.59;;;12.58;100.00
33155;BME280;19511;42.682;23.332;2023-05-19T05:06:51;95355.81;;;12.08;100.00
33155;BME280;19511;42.682;23.332;2023-05-19T05:09:17;95440.38;;;12.58;100.00
33155;BME280;19511;42.682;23.332;2023-05-19T05:11:44;95445.56;;;12.56;100.00
33155;BME280;19511;42.682;23.332;2023-05-19T05:14:10;95449.88;;;12.61;100.00
33155;BME280;19511;42.682;23.332;2023-05-19T05:16:39;95438.84;;;12.54;100.00
33155;BME280;19511;42.682;23.332;2023-05-19T05:19:05;95447.44;;;12.63;100.00
33155;BME280;19511;42.682;23.332;2023-05-19T05:21:31;95295.69;;;11.67;100.00
33155;BME280;19511;42.682;23.332;2023-05-19T05:23:57;95442.53;;;12.74;100.00
33155;BME280;19511;42.682;23.332;2023-05-19T05:26:29;95436.91;;;12.82;100.00
33155;BME280;19511;42.682;23.332;2023-05-19T05:28:54;95432.44;;;12.88;100.00
33155;BME280;19511;42.682;23.332;2023-05-19T05:31:20;95430.88;;;12.87;100.00
33155;BME280;19511;42.682;23.332;2023-05-19T05:33:45;95430.88;;;12.87;100.00
33155;BME280;19511;42.682;23.332;2023-05-19T05:36:14;95441.41;;;12.99;100.00
33155;BME280;19511;42.682;23.332;2023-05-19T05:38:39;95437.00;;;13.02;100.00
33155;BME280;19511;42.682;23.332;2023-05-19T05:41:05;95374.72;;;12.76;100.00
33155;BME280;19511;42.682;23.332;2023-05-19T05:43:30;95441.81;;;13.25;100.00
33155;BME280;19511;42.682;23.332;2023-05-19T05:45:56;95423.56;;;13.24;100.00
33155;BME280;19511;42.682;23.332;2023-05-19T05:48:22;95431.97;;;13.48;100.00
33155;BME280;19511;42.682;23.332;2023-05-19T05:50:48;95431.41;;;13.57;100.00
33155;BME280;19511;42.682;23.332;2023-05-19T05:53:17;95359.44;;;13.15;100.00
33155;BME280;19511;42.682;23.332;2023-05-19T05:55:47;95447.28;;;13.80;100.00
33155;BME280;19511;42.682;23.332;2023-05-19T05:58:12;95358.78;;;13.31;100.00
33155;BME280;19511;42.682;23.332;2023-05-19T06:00:39;95451.88;;;13.90;100.00
33155;BME280;19511;42.682;23.332;2023-05-19T06:03:08;95455.09;;;13.88;100.00
33155;BME280;19511;42.682;23.332;2023-05-19T06:05:37;95455.88;;;13.89;100.00
33155;BME280;19511;42.682;23.332;2023-05-19T06:08:03;95437.38;;;13.79;100.00
33155;BME280;19511;42.682;23.332;2023-05-19T06:10:28;95451.38;;;13.95;100.00
33155;BME280;19511;42.682;23.332;2023-05-19T06:12:54;95465.63;;;14.21;100.00
33155;BME280;19511;42.682;23.332;2023-05-19T06:15:20;95441.09;;;14.16;100.00
33155;BME280;19511;42.682;23.332;2023-05-19T06:17:46;95449.16;;;14.30;100.00
33155;BME280;19511;42.682;23.332;2023-05-19T06:20:12;95452.50;;;14.42;100.00
33155;BME280;19511;42.682;23.332;2023-05-19T06:22:37;95431.00;;;14.42;100.00
33155;BME280;19511;42.682;23.332;2023-05-19T06:25:04;95458.66;;;14.53;100.00
33155;BME280;19511;42.682;23.332;2023-05-19T06:27:29;95458.72;;;14.49;100.00
33155;BME280;19511;42.682;23.332;2023-05-19T06:29:58;95447.88;;;14.55;100.00
33155;BME280;19511;42.682;23.332;2023-05-19T06:32:23;95454.38;;;14.68;100.00
33155;BME280;19511;42.682;23.332;2023-05-19T06:34:49;95427.78;;;14.64;100.00
33155;BME280;19511;42.682;23.332;2023-05-19T06:37:20;95345.63;;;14.19;100.00
33155;BME280;19511;42.682;23.332;2023-05-19T06:39:48;95447.91;;;14.92;100.00
33155;BME280;19511;42.682;23.332;2023-05-19T06:42:15;95369.66;;;14.49;100.00
33155;BME280;19511;42.682;23.332;2023-05-19T06:44:41;95430.59;;;15.00;100.00
33155;BME280;19511;42.682;23.332;2023-05-19T06:47:06;95444.41;;;15.24;100.00
33155;BME280;19511;42.682;23.332;2023-05-19T06:49:31;95449.19;;;15.24;100.00
33155;BME280;19511;42.682;23.332;2023-05-19T06:52:01;95447.44;;;15.30;100.00
33155;BME280;19511;42.682;23.332;2023-05-19T06:54:26;95433.19;;;15.28;100.00
33155;BME280;19511;42.682;23.332;2023-05-19T06:56:52;95414.09;;;15.10;100.00
33155;BME280;19511;42.682;23.332;2023-05-19T06:59:20;95451.03;;;15.47;100.00
33155;BME280;19511;42.682;23.332;2023-05-19T07:01:47;95455.56;;;15.57;100.00
33155;BME280;19511;42.682;23.332;2023-05-19T07:04:13;95452.84;;;15.70;100.00
33155;BME280;19511;42.682;23.332;2023-05-19T07:06:38;95387.78;;;15.27;100.00
33155;BME280;19511;42.682;23.332;2023-05-19T07:09:03;95454.00;;;15.89;100.00
33155;BME280;19511;42.682;23.332;2023-05-19T07:11:29;95459.22;;;16.04;100.00
33155;BME280;19511;42.682;23.332;2023-05-19T07:13:55;95381.84;;;15.75;100.00
33155;BME280;19511;42.682;23.332;2023-05-19T07:16:20;95456.94;;;16.44;100.00
33155;BME280;19511;42.682;23.332;2023-05-19T07:18:46;95460.22;;;16.56;100.00
33155;BME280;19511;42.682;23.332;2023-05-19T07:21:11;95463.09;;;16.52;100.00
33155;BME280;19511;42.682;23.332;2023-05-19T07:23:37;95466.38;;;16.63;100.00
33155;BME280;19511;42.682;23.332;2023-05-19T07:26:02;95469.41;;;16.40;100.00
33155;BME280;19511;42.682;23.332;2023-05-19T07:28:28;95471.84;;;16.38;100.00
33155;BME280;19511;42.682;23.332;2023-05-19T07:30:53;95464.81;;;16.62;100.00
33155;BME280;19511;42.682;23.332;2023-05-19T07:33:18;95394.25;;;16.45;100.00
33155;BME280;19511;42.682;23.332;2023-05-19T07:35:44;95458.69;;;16.80;100.00
33155;BME280;19511;42.682;23.332;2023-05-19T07:38:10;95454.16;;;17.00;100.00
33155;BME280;19511;42.682;23.332;2023-05-19T07:40:36;95450.34;;;16.93;100.00
33155;BME280;19511;42.682;23.332;2023-05-19T07:43:01;95468.81;;;16.61;100.00
33155;BME280;19511;42.682;23.332;2023-05-19T07:45:27;95451.97;;;16.65;100.00
33155;BME280;19511;42.682;23.332;2023-05-19T07:47:52;95453.22;;;16.77;100.00
33155;BME280;19511;42.682;23.332;2023-05-19T07:50:18;95455.50;;;16.95;100.00
33155;BME280;19511;42.682;23.332;2023-05-19T07:52:44;95460.66;;;16.96;100.00
33155;BME280;19511;42.682;23.332;2023-05-19T07:55:09;95445.03;;;17.12;100.00
33155;BME280;19511;42.682;23.332;2023-05-19T07:57:35;95448.09;;;16.88;100.00
33155;BME280;19511;42.682;23.332;2023-05-19T08:00:01;95453.59;;;16.92;100.00
33155;BME280;19511;42.682;23.332;2023-05-19T08:02:32;95457.97;;;17.32;100.00
33155;BME280;19511;42.682;23.332;2023-05-19T08:05:01;95383.53;;;17.12;100.00
33155;BME280;19511;42.682;23.332;2023-05-19T08:07:26;95447.63;;;17.80;100.00
33155;BME280;19511;42.682;23.332;2023-05-19T08:09:55;95448.75;;;17.95;100.00
33155;BME280;19511;42.682;23.332;2023-05-19T08:12:21;95447.22;;;18.17;100.00
33155;BME280;19511;42.682;23.332;2023-05-19T08:14:46;95383.50;;;17.86;100.00
33155;BME280;19511;42.682;23.332;2023-05-19T08:17:12;95449.31;;;18.25;100.00
33155;BME280;19511;42.682;23.332;2023-05-19T08:19:37;95379.66;;;17.92;100.00
33155;BME280;19511;42.682;23.332;2023-05-19T08:22:03;95435.25;;;18.38;100.00
33155;BME280;19511;42.682;23.332;2023-05-19T08:24:28;95381.66;;;18.05;100.00
33155;BME280;19511;42.682;23.332;2023-05-19T08:26:54;95441.13;;;18.53;100.00
33155;BME280;19511;42.682;23.332;2023-05-19T08:29:20;95448.91;;;18.49;100.00
33155;BME280;19511;42.682;23.332;2023-05-19T08:31:45;95390.19;;;18.01;100.00
33155;BME280;19511;42.682;23.332;2023-05-19T08:34:14;95452.06;;;18.16;100.00
33155;BME280;19511;42.682;23.332;2023-05-19T08:36:39;95444.72;;;18.32;100.00
33155;BME280;19511;42.682;23.332;2023-05-19T08:39:06;95445.06;;;18.34;100.00
33155;BME280;19511;42.682;23.332;2023-05-19T08:41:31;95444.78;;;18.41;100.00
33155;BME280;19511;42.682;23.332;2023-05-19T08:43:57;95450.78;;;18.52;100.00
33155;BME280;19511;42.682;23.332;2023-05-19T08:46:24;95449.94;;;18.65;100.00
33155;BME280;19511;42.682;23.332;2023-05-19T08:48:53;95446.16;;;18.58;100.00
33155;BME280;19511;42.682;23.332;2023-05-19T08:51:26;95437.75;;;18.58;100.00
33155;BME280;19511;42.682;23.332;2023-05-19T08:53:57;95446.50;;;18.60;100.00
33155;BME280;19511;42.682;23.332;2023-05-19T08:56:24;95457.06;;;18.56;100.00
33155;BME280;19511;42.682;23.332;2023-05-19T08:58:50;95451.03;;;18.89;100.00
33155;BME280;19511;42.682;23.332;2023-05-19T09:01:18;95442.56;;;18.80;100.00
33155;BME280;19511;42.682;23.332;2023-05-19T09:03:45;95420.66;;;18.88;100.00
33155;BME280;19511;42.682;23.332;2023-05-19T09:06:11;95430.31;;;18.87;100.00
33155;BME280;19511;42.682;23.332;2023-05-19T09:08:38;95358.66;;;18.54;100.00
33155;BME280;19511;42.682;23.332;2023-05-19T09:11:03;95430.03;;;19.16;100.00
33155;BME280;19511;42.682;23.332;2023-05-19T09:13:29;95420.44;;;19.36;100.00
33155;BME280;19511;42.682;23.332;2023-05-19T09:15:56;95417.66;;;19.04;100.00
33155;BME280;19511;42.682;23.332;2023-05-19T09:18:23;95417.38;;;19.12;100.00
33155;BME280;19511;42.682;23.332;2023-05-19T09:20:50;95421.47;;;19.20;100.00
33155;BME280;19511;42.682;23.332;2023-05-19T09:23:16;95407.22;;;19.05;100.00
33155;BME280;19511;42.682;23.332;2023-05-19T09:25:49;95419.41;;;19.11;100.00
33155;BME280;19511;42.682;23.332;2023-05-19T09:28:32;95409.72;;;19.12;100.00
33155;BME280;19511;42.682;23.332;2023-05-19T09:31:10;95403.53;;;19.17;100.00
33155;BME280;19511;42.682;23.332;2023-05-19T09:33:37;95339.19;;;18.82;100.00
33155;BME280;19511;42.682;23.332;2023-05-19T09:36:03;95392.38;;;19.36;100.00
33155;BME280;19511;42.682;23.332;2023-05-19T09:38:39;95343.47;;;19.37;100.00
33155;BME280;19511;42.682;23.332;2023-05-19T09:41:06;95407.81;;;19.90;100.00
33155;BME280;19511;42.682;23.332;2023-05-19T09:43:32;95406.59;;;20.10;100.00
33155;BME280;19511;42.682;23.332;2023-05-19T09:46:08;95392.53;;;19.92;100.00
33155;BME280;19511;42.682;23.332;2023-05-19T09:48:37;95399.69;;;20.11;100.00
33155;BME280;19511;42.682;23.332;2023-05-19T09:51:03;95407.22;;;20.05;100.00
33155;BME280;19511;42.682;23.332;2023-05-19T09:53:30;95390.69;;;20.16;100.00
33155;BME280;19511;42.682;23.332;2023-05-19T09:55:57;95395.66;;;20.12;100.00
33155;BME280;19511;42.682;23.332;2023-05-19T09:58:22;95330.16;;;19.87;100.00
33155;BME280;19511;42.682;23.332;2023-05-19T10:00:51;95396.88;;;20.48;100.00
33155;BME280;19511;42.682;23.332;2023-05-19T10:03:20;95401.25;;;20.49;100.00
33155;BME280;19511;42.682;23.332;2023-05-19T10:05:52;95391.59;;;20.32;100.00
33155;BME280;19511;42.682;23.332;2023-05-19T10:08:17;95390.28;;;20.61;100.00
33155;BME280;19511;42.682;23.332;2023-05-19T10:10:46;95320.75;;;20.18;100.00
33155;BME280;19511;42.682;23.332;2023-05-19T10:13:12;95347.91;;;20.21;100.00
33155;BME280;19511;42.682;23.332;2023-05-19T10:15:40;95381.56;;;20.59;100.00
33155;BME280;19511;42.682;23.332;2023-05-19T10:18:08;95336.19;;;20.32;100.00
33155;BME280;19511;42.682;23.332;2023-05-19T10:20:33;95372.22;;;20.52;100.00
33155;BME280;19511;42.682;23.332;2023-05-19T10:23:00;95376.25;;;20.70;100.00
33155;BME280;19511;42.682;23.332;2023-05-19T10:25:28;95377.16;;;20.67;100.00
33155;BME280;19511;42.682;23.332;2023-05-19T10:28:06;95386.56;;;20.82;100.00
33155;BME280;19511;42.682;23.332;2023-05-19T10:30:43;95369.53;;;20.58;100.00
33155;BME280;19511;42.682;23.332;2023-05-19T10:33:14;95360.66;;;20.60;100.00
33155;BME280;19511;42.682;23.332;2023-05-19T10:41:12;95366.66;;;20.95;100.00
33155;BME280;19511;42.682;23.332;2023-05-19T10:44:08;95370.03;;;21.09;100.00
33155;BME280;19511;42.682;23.332;2023-05-19T10:46:39;95359.16;;;21.01;100.00
33155;BME280;19511;42.682;23.332;2023-05-19T10:49:06;95360.13;;;21.23;100.00
33155;BME280;19511;42.682;23.332;2023-05-19T10:51:32;95292.34;;;20.87;100.00
33155;BME280;19511;42.682;23.332;2023-05-19T10:54:02;95355.28;;;21.57;100.00
33155;BME280;19511;42.682;23.332;2023-05-19T10:56:33;95358.44;;;21.59;100.00
33155;BME280;19511;42.682;23.332;2023-05-19T10:59:01;95347.38;;;21.12;100.00
33155;BME280;19511;42.682;23.332;2023-05-19T11:01:31;95300.72;;;20.53;100.00
33155;BME280;19511;42.682;23.332;2023-05-19T11:04:03;95286.38;;;20.42;100.00
33155;BME280;19511;42.682;23.332;2023-05-19T11:06:30;95337.09;;;21.09;100.00
33155;BME280;19511;42.682;23.332;2023-05-19T11:09:15;95356.41;;;21.50;100.00
33155;BME280;19511;42.682;23.332;2023-05-19T11:11:52;95350.09;;;21.64;100.00
33155;BME280;19511;42.682;23.332;2023-05-19T11:14:22;95356.69;;;21.61;98.30
33155;BME280;19511;42.682;23.332;2023-05-19T11:16:52;95354.28;;;21.69;100.00
33155;BME280;19511;42.682;23.332;2023-05-19T11:19:27;95347.88;;;21.35;100.00
33155;BME280;19511;42.682;23.332;2023-05-19T11:21:54;95347.72;;;21.05;100.00
33155;BME280;19511;42.682;23.332;2023-05-19T11:24:47;95345.25;;;20.98;100.00
33155;BME280;19511;42.682;23.332;2023-05-19T11:27:27;95348.63;;;21.11;100.00
33155;BME280;19511;42.682;23.332;2023-05-19T11:30:15;95338.94;;;21.12;100.00
33155;BME280;19511;42.682;23.332;2023-05-19T11:32:46;95330.34;;;20.82;100.00
33155;BME280;19511;42.682;23.332;2023-05-19T11:35:16;95274.22;;;20.36;100.00
33155;BME280;19511;42.682;23.332;2023-05-19T11:37:44;95328.31;;;20.64;100.00
33155;BME280;19511;42.682;23.332;2023-05-19T11:40:12;95337.19;;;20.81;100.00
33155;BME280;19511;42.682;23.332;2023-05-19T11:42:39;95338.28;;;20.75;100.00
33155;BME280;19511;42.682;23.332;2023-05-19T11:45:05;95321.09;;;20.20;100.00
33155;BME280;19511;42.682;23.332;2023-05-19T11:47:31;95355.09;;;20.13;100.00
33155;BME280;19511;42.682;23.332;2023-05-19T11:50:00;95309.81;;;19.46;100.00
33155;BME280;19511;42.682;23.332;2023-05-19T11:52:26;95362.72;;;19.16;100.00
33155;BME280;19511;42.682;23.332;2023-05-19T11:54:51;95377.94;;;18.74;100.00
33155;BME280;19511;42.682;23.332;2023-05-19T11:57:17;95382.91;;;18.48;100.00
33155;BME280;19511;42.682;23.332;2023-05-19T11:59:43;95333.38;;;17.78;100.00
33155;BME280;19511;42.682;23.332;2023-05-19T12:02:19;95396.63;;;17.76;100.00
33155;BME280;19511;42.682;23.332;2023-05-19T12:04:47;95422.72;;;17.73;100.00
33155;BME280;19511;42.682;23.332;2023-05-19T12:07:14;95421.22;;;17.33;100.00
33155;BME280;19511;42.682;23.332;2023-05-19T12:09:42;95437.31;;;17.16;100.00
33155;BME280;19511;42.682;23.332;2023-05-19T12:12:12;95441.81;;;16.84;100.00
33155;BME280;19511;42.682;23.332;2023-05-19T12:14:37;95449.28;;;16.74;100.00
33155;BME280;19511;42.682;23.332;2023-05-19T12:17:13;95371.94;;;16.03;100.00
33155;BME280;19511;42.682;23.332;2023-05-19T12:19:40;95453.06;;;16.25;100.00
33155;BME280;19511;42.682;23.332;2023-05-19T12:22:07;95453.94;;;16.22;100.00
33155;BME280;19511;42.682;23.332;2023-05-19T12:24:34;95381.16;;;15.87;100.00
33155;BME280;19511;42.682;23.332;2023-05-19T12:27:05;95451.50;;;16.24;100.00
33155;BME280;19511;42.682;23.332;2023-05-19T12:29:31;95454.03;;;16.19;100.00
33155;BME280;19511;42.682;23.332;2023-05-19T12:31:57;95455.69;;;16.16;100.00
33155;BME280;19511;42.682;23.332;2023-05-19T12:34:23;95385.59;;;15.85;100.00
33155;BME280;19511;42.682;23.332;2023-05-19T12:36:48;95453.16;;;16.22;100.00
33155;BME280;19511;42.682;23.332;2023-05-19T12:39:14;95376.44;;;15.67;100.00
33155;BME280;19511;42.682;23.332;2023-05-19T12:41:39;95440.16;;;16.15;100.00
33155;BME280;19511;42.682;23.332;2023-05-19T12:44:14;95428.00;;;16.38;100.00
33155;BME280;19511;42.682;23.332;2023-05-19T12:46:40;95417.53;;;16.68;100.00
33155;BME280;19511;42.682;23.332;2023-05-19T12:49:08;95414.50;;;16.92;100.00
33155;BME280;19511;42.682;23.332;2023-05-19T12:51:33;95395.84;;;17.02;100.00
33155;BME280;19511;42.682;23.332;2023-05-19T12:54:03;95321.25;;;16.73;100.00
33155;BME280;19511;42.682;23.332;2023-05-19T12:56:29;95332.44;;;16.86;100.00
33155;BME280;19511;42.682;23.332;2023-05-19T12:58:54;95368.44;;;17.22;100.00